Kuwait City, Kuwait
Current Conditions -  °F | °C
As of 5:00 PM on Sunday 21 Dec 2014 (Local Time) from OKBK Reporting Station
Broken Clouds Broken Clouds  
Wind Chill: 66°   Ceiling: 8000
Heat Index: 66°   Visibility: 5mi
Dew Point: 46°   Wind: 15mph
Humidity: 49%   Direction: 350°N
Pressure: 29.97"   Gusts: NA
Location:  29.22°N, 47.98°E
Report Text: OKBK 211400Z 35013KT 8000 FEW040 BKN080 19/08 Q1015 NOSIG
Loading
Personal Weather Stations






























Interactive Weather Map New forecast layout! Learn more

10-Day Weather Forecast

Advertisements
Track Severe Weather on mobile